TAF TIST
TIST 270528Z 2706/2806 06006KT P6SM SKC FM271300 07009KT P6SM FEW040 FM272200 03007KT P6SM SCT050=
METAR TIST
WC TIST
WS TIST
WV TIST